John Wayne Airport-Orange County Airport
KSNA : now visible

Airfield :











YOU CAN JOIN US ON...

 
LOGIN :

Register | Disclaimer

   EN    FR    IT 

 









Legend :    VFR   Marginal VFR   IFR   Intensive IFR   Very Intensive IFR
Visi :
Ceiling :
>= 8 km
>= 3000ft
5 to 8 km
1000 to 3000 ft
1500m to 5 km
500 to 1000 ft
800 to 1500m
200 to 500 ft
< 800m
< 200 ft
Symbols :   Thunderstorms  Fog  Heavy snow  Heavy precipitations  Wind > 20 kt






- Airport Elevation : 56 ft
- IATA code : SNA


KSNA - John Wayne -Orange County

CURRENT METAR :
  • 031253Z 18004KT 10SM CLR 19/16 A2997 RMK AO2 SLP148 T01890161

EXPIRED METARs :
  • 031153Z AUTO 20004KT 9SM CLR 19/16 A2996 RMK AO2 SLP144 T01890156 10211 20189 53004
  • 031053Z AUTO 22003KT 10SM CLR 19/16 A2995 RMK AO2 SLP141 T01940156

TAF KSNA
Valid from the 03 at 12:00 until the 04 at 12:00 UTC


031121Z 0312/0412 VRB04KT P6SM SKC
FM032000 22010KT P6SM SKC
FM040400 VRB05KT P6SM SKC
KZLA FIR / North America



MET'MAP, your aeronautical weather chart ! - Copyright ORBIFLY December 2007 - Disclaimer

ORBIFLY MET'MAP TEAM :

Programming & Development : Alexandra Zaïnal
Concept & original design : Baudouin d'Aumeries
Assistance for programming : Marc-Olivier Méhu
Technical & hardware support : Manuel Goepfert

Contact : metmap@orbifly.com




SOURCES & CREDITS :

   NOAA       Earth
Advisory